Time;durP1;ratioP1;P1;durP2;ratioP2;P2;SDS_P1;SDS_P2;PMS_P1;PMS_P2;Temp;Humidity;BMP_temperature;BMP_pressure;BME280_temperature;BME280_humidity;BME280_pressure;Samples;Min_cycle;Max_cycle;Signal;HPM_P1;HPM_P2
2023/01/06 00:01:36;;;;;;;2.63;0.90;;;6.20;99.90;;;;;;4988422;28;20661;-71
2023/01/06 00:04:03;;;;;;;1.50;1.00;;;6.20;99.90;;;;;;4988462;28;20524;-72
2023/01/06 00:06:32;;;;;;;2.90;1.00;;;6.20;99.90;;;;;;4988681;28;20209;-72
2023/01/06 00:09:01;;;;;;;2.20;1.20;;;6.10;99.90;;;;;;4988541;28;20292;-70
2023/01/06 00:11:28;;;;;;;1.13;1.00;;;6.20;99.90;;;;;;4988402;28;20312;-70
2023/01/06 00:13:55;;;;;;;2.77;1.43;;;6.20;99.90;;;;;;4988004;28;20666;-71
2023/01/06 00:16:22;;;;;;;1.17;0.90;;;6.20;99.90;;;;;;4987882;28;20249;-71
2023/01/06 00:18:49;;;;;;;2.50;1.17;;;6.20;99.90;;;;;;4988253;28;20685;-71
2023/01/06 00:21:16;;;;;;;2.83;1.00;;;6.20;99.90;;;;;;4987793;28;20328;-71
2023/01/06 00:23:44;;;;;;;4.73;1.40;;;6.20;99.90;;;;;;4987959;28;20214;-71
2023/01/06 00:26:12;;;;;;;1.73;1.00;;;6.10;99.90;;;;;;4988412;28;20210;-71
2023/01/06 00:28:39;;;;;;;1.40;1.30;;;6.20;99.90;;;;;;4988341;28;20285;-71
2023/01/06 00:31:07;;;;;;;1.87;1.27;;;6.20;99.90;;;;;;4988232;28;20293;-71
2023/01/06 00:33:34;;;;;;;2.47;1.00;;;6.20;99.90;;;;;;4987542;28;20232;-71
2023/01/06 00:36:00;;;;;;;1.77;1.07;;;6.20;99.90;;;;;;4987903;28;20257;-70
2023/01/06 00:38:27;;;;;;;2.30;0.93;;;6.20;99.90;;;;;;4987667;28;20673;-70
2023/01/06 00:40:56;;;;;;;3.23;1.00;;;6.20;99.90;;;;;;4987760;28;20285;-70
2023/01/06 00:43:22;;;;;;;1.87;1.30;;;6.20;99.90;;;;;;4987780;28;20246;-70
2023/01/06 00:45:49;;;;;;;2.80;1.37;;;6.20;99.90;;;;;;4982328;28;20646;-71
2023/01/06 00:48:16;;;;;;;2.83;0.97;;;6.20;99.90;;;;;;4968427;28;20298;-72
2023/01/06 00:50:43;;;;;;;2.67;1.30;;;6.20;99.90;;;;;;4971773;28;20258;-71
2023/01/06 00:53:10;;;;;;;1.83;1.00;;;6.20;99.90;;;;;;4987899;28;20241;-71
2023/01/06 00:55:37;;;;;;;1.97;1.20;;;6.20;99.90;;;;;;4988068;28;20234;-71
2023/01/06 00:58:05;;;;;;;1.87;1.30;;;6.20;99.90;;;;;;4987641;28;20569;-71
2023/01/06 01:00:32;;;;;;;3.00;1.20;;;6.20;99.90;;;;;;4988038;28;20620;-71
2023/01/06 01:02:59;;;;;;;1.30;0.90;;;6.20;99.90;;;;;;4987642;28;20260;-71
2023/01/06 01:05:26;;;;;;;2.67;1.37;;;6.30;99.90;;;;;;4987522;28;20218;-71
2023/01/06 01:07:52;;;;;;;3.23;1.03;;;6.30;99.90;;;;;;4987994;28;20242;-71
2023/01/06 01:10:19;;;;;;;2.03;1.40;;;6.30;99.90;;;;;;4987217;28;20297;-71
2023/01/06 01:12:46;;;;;;;3.30;1.30;;;6.30;99.90;;;;;;4987584;28;20495;-71
2023/01/06 01:15:15;;;;;;;2.10;1.10;;;6.30;99.90;;;;;;4986823;28;20337;-71
2023/01/06 01:17:41;;;;;;;2.07;1.00;;;6.30;99.90;;;;;;4987377;28;20602;-71
2023/01/06 01:20:09;;;;;;;1.63;0.90;;;6.30;99.90;;;;;;4968225;28;20235;-71
2023/01/06 01:22:36;;;;;;;2.77;1.10;;;6.30;99.90;;;;;;4978241;28;20951;-70
2023/01/06 01:25:04;;;;;;;2.00;1.13;;;6.30;99.90;;;;;;4990136;28;20301;-70
2023/01/06 01:27:30;;;;;;;3.87;1.50;;;6.30;99.90;;;;;;4990894;28;20705;-70
2023/01/06 01:29:57;;;;;;;1.67;1.10;;;6.30;99.90;;;;;;4990871;28;20740;-70
2023/01/06 01:32:26;;;;;;;1.07;0.97;;;6.30;99.90;;;;;;4990753;28;20206;-71
2023/01/06 01:34:52;;;;;;;2.03;0.90;;;6.30;99.90;;;;;;4990936;28;20720;-70
2023/01/06 01:37:19;;;;;;;1.30;1.20;;;6.40;99.90;;;;;;4991033;28;20238;-70
2023/01/06 01:39:47;;;;;;;4.00;1.27;;;6.30;99.90;;;;;;4991016;28;20645;-70
2023/01/06 01:42:17;;;;;;;2.40;1.10;;;6.30;99.90;;;;;;4990727;28;20571;-70
2023/01/06 01:45:03;;;;;;;2.47;1.37;;;6.30;99.90;;;;;;4990821;28;20669;-70
2023/01/06 01:47:43;;;;;;;2.50;1.20;;;6.40;99.90;;;;;;4971735;28;20322;-70
2023/01/06 01:50:28;;;;;;;1.67;1.40;;;6.30;99.90;;;;;;4971558;28;20234;-70
2023/01/06 01:52:58;;;;;;;1.63;1.07;;;6.30;99.90;;;;;;4975569;28;20655;-71
2023/01/06 01:55:28;;;;;;;3.37;1.40;;;6.40;99.90;;;;;;4990216;28;20942;-71
2023/01/06 01:58:00;;;;;;;2.53;1.30;;;6.30;99.90;;;;;;4990891;28;20297;-71
2023/01/06 02:00:27;;;;;;;1.97;1.20;;;6.30;99.90;;;;;;4997687;28;20301;-70
2023/01/06 02:02:56;;;;;;;2.73;1.23;;;6.30;99.90;;;;;;4990434;28;20206;-70
2023/01/06 02:05:26;;;;;;;1.73;0.90;;;6.30;99.90;;;;;;4990449;28;20213;-71
2023/01/06 02:07:56;;;;;;;1.40;1.30;;;6.30;99.90;;;;;;4990587;28;20308;-71
2023/01/06 02:10:24;;;;;;;2.17;1.30;;;6.40;99.90;;;;;;4990536;28;20194;-71
2023/01/06 02:12:54;;;;;;;3.83;1.77;;;6.30;99.90;;;;;;4990286;28;20241;-71
2023/01/06 02:15:23;;;;;;;1.50;1.23;;;6.30;99.90;;;;;;4989631;28;20256;-71
2023/01/06 02:18:38;;;;;;;1.67;1.20;;;6.30;99.90;;;;;;4990288;28;20293;-71
2023/01/06 02:21:32;;;;;;;1.97;1.20;;;6.30;99.90;;;;;;4963109;28;20273;-71
2023/01/06 02:24:29;;;;;;;1.43;0.93;;;6.30;99.90;;;;;;4970837;28;20677;-70
2023/01/06 02:27:47;;;;;;;1.57;1.20;;;6.30;99.90;;;;;;4970535;28;20254;-70
2023/01/06 02:30:36;;;;;;;2.30;1.43;;;6.30;99.90;;;;;;4873625;29;20199;-71
2023/01/06 02:33:17;;;;;;;3.57;1.17;;;6.30;99.90;;;;;;4891160;29;20202;-70
2023/01/06 02:35:58;;;;;;;2.07;1.13;;;6.30;99.90;;;;;;4958253;28;20316;-70
2023/01/06 02:38:39;;;;;;;2.67;1.20;;;6.30;99.90;;;;;;4989578;28;20704;-70
2023/01/06 02:41:20;;;;;;;1.67;1.17;;;6.30;99.90;;;;;;4989470;28;20199;-69
2023/01/06 02:44:00;;;;;;;3.87;1.23;;;6.30;99.90;;;;;;4989670;28;20652;-70
2023/01/06 02:46:41;;;;;;;3.70;1.43;;;6.30;99.90;;;;;;4986533;28;20317;-70
2023/01/06 02:49:16;;;;;;;1.03;1.00;;;6.30;99.90;;;;;;4985233;28;20205;-70
2023/01/06 02:51:49;;;;;;;1.53;1.10;;;6.30;99.90;;;;;;4970232;28;20195;-70
2023/01/06 02:54:22;;;;;;;2.00;1.30;;;6.30;99.90;;;;;;4970005;28;20222;-70
2023/01/06 02:56:54;;;;;;;1.47;1.10;;;6.30;99.90;;;;;;4982906;28;20305;-70
2023/01/06 02:59:26;;;;;;;2.67;1.33;;;6.30;99.90;;;;;;4989242;28;20584;-70
2023/01/06 03:01:54;;;;;;;1.57;1.13;;;6.30;99.90;;;;;;4989149;28;20241;-70
2023/01/06 03:04:27;;;;;;;3.93;1.00;;;6.30;99.90;;;;;;4989079;28;20293;-70
2023/01/06 03:06:58;;;;;;;2.70;1.30;;;6.30;99.90;;;;;;4989561;28;20277;-70
2023/01/06 03:09:31;;;;;;;2.50;1.43;;;6.30;99.90;;;;;;4989271;28;20252;-70
2023/01/06 03:12:02;;;;;;;1.30;1.20;;;6.40;99.90;;;;;;4989216;28;20222;-70
2023/01/06 03:14:34;;;;;;;3.20;1.40;;;6.40;99.90;;;;;;4988851;28;20242;-70
2023/01/06 03:17:02;;;;;;;3.93;1.43;;;6.40;99.90;;;;;;4988814;28;20209;-71
2023/01/06 03:19:31;;;;;;;4.07;1.20;;;6.40;99.90;;;;;;4989008;28;20206;-69
2023/01/06 03:21:59;;;;;;;1.60;1.30;;;6.40;99.90;;;;;;4988840;28;20210;-72
2023/01/06 03:24:28;;;;;;;1.73;1.00;;;6.40;99.90;;;;;;4988800;28;20576;-70
2023/01/06 03:26:55;;;;;;;2.13;1.00;;;6.40;99.90;;;;;;4988601;28;20237;-70
2023/01/06 03:29:23;;;;;;;5.60;1.60;;;6.40;99.90;;;;;;4985986;28;20300;-70
2023/01/06 03:32:00;;;;;;;2.30;1.60;;;6.40;99.90;;;;;;4986075;28;20234;-70
2023/01/06 03:34:43;;;;;;;5.20;1.30;;;6.40;99.90;;;;;;4985745;28;20230;-70
2023/01/06 03:37:16;;;;;;;2.57;1.30;;;6.40;99.90;;;;;;4983912;28;20198;-70
2023/01/06 03:39:51;;;;;;;2.70;1.13;;;6.40;99.90;;;;;;4985814;28;20265;-70
2023/01/06 03:45:35;;;;;;;2.07;1.10;;;6.40;99.90;;;;;;4986217;28;20209;-70
2023/01/06 03:48:08;;;;;;;5.03;1.53;;;6.40;99.90;;;;;;4984635;28;20245;-70
2023/01/06 03:50:40;;;;;;;2.47;1.50;;;6.40;99.90;;;;;;4972567;28;20654;-71
2023/01/06 03:53:30;;;;;;;2.73;1.47;;;6.40;99.90;;;;;;4988035;28;20210;-70
2023/01/06 03:56:09;;;;;;;2.80;1.70;;;6.40;99.90;;;;;;4967708;28;20321;-70
2023/01/06 03:58:37;;;;;;;4.00;1.43;;;6.40;99.90;;;;;;4966808;28;20286;-70
2023/01/06 04:01:05;;;;;;;4.13;1.43;;;6.40;99.90;;;;;;4967657;28;20217;-70
2023/01/06 04:03:33;;;;;;;2.17;1.10;;;6.40;99.90;;;;;;4967216;28;20307;-70
2023/01/06 04:06:01;;;;;;;3.57;1.30;;;6.40;99.90;;;;;;4982277;28;20237;-70
2023/01/06 04:08:28;;;;;;;1.73;1.43;;;6.40;99.90;;;;;;4987024;28;20523;-70
2023/01/06 04:10:55;;;;;;;2.13;1.37;;;6.40;99.90;;;;;;4987101;28;20300;-70
2023/01/06 04:13:21;;;;;;;3.80;1.60;;;6.40;99.90;;;;;;4988264;28;20293;-70
2023/01/06 04:15:47;;;;;;;1.97;1.40;;;6.40;99.90;;;;;;4987788;28;20245;-70
2023/01/06 04:18:14;;;;;;;2.17;1.30;;;6.40;99.90;;;;;;4987795;28;20208;-70
2023/01/06 04:20:41;;;;;;;3.60;1.07;;;6.40;99.90;;;;;;4988421;28;20241;-70
2023/01/06 04:23:10;;;;;;;2.20;1.40;;;6.40;99.90;;;;;;4988012;28;20302;-70
2023/01/06 04:25:36;;;;;;;4.23;1.20;;;6.40;99.90;;;;;;4988368;28;20408;-70
2023/01/06 04:28:04;;;;;;;2.37;1.17;;;6.40;99.90;;;;;;4987942;28;20309;-70
2023/01/06 04:30:31;;;;;;;4.23;1.13;;;6.40;99.90;;;;;;4987842;28;20764;-70
2023/01/06 04:32:58;;;;;;;3.20;1.10;;;6.40;99.90;;;;;;4987791;28;20678;-70
2023/01/06 04:35:24;;;;;;;1.67;1.23;;;6.40;99.90;;;;;;4987736;28;20230;-70
2023/01/06 04:37:51;;;;;;;2.70;1.20;;;6.40;99.90;;;;;;4988103;28;20268;-70
2023/01/06 04:40:19;;;;;;;5.13;1.43;;;6.40;99.90;;;;;;4987671;28;20680;-70
2023/01/06 04:43:04;;;;;;;1.57;1.13;;;6.40;99.90;;;;;;4993163;28;20306;-70
2023/01/06 04:45:32;;;;;;;2.30;1.33;;;6.40;99.90;;;;;;4987884;28;20229;-70
2023/01/06 04:47:59;;;;;;;3.67;1.33;;;6.40;99.90;;;;;;4987590;28;20289;-70
2023/01/06 04:50:25;;;;;;;3.53;1.37;;;6.40;99.90;;;;;;4987201;28;20584;-70
2023/01/06 04:52:52;;;;;;;1.33;1.20;;;6.40;99.90;;;;;;4987949;28;20214;-70
2023/01/06 04:55:21;;;;;;;2.40;1.13;;;6.40;99.90;;;;;;4987473;28;20316;-70
2023/01/06 04:57:47;;;;;;;3.93;1.63;;;6.40;99.90;;;;;;4987530;28;20677;-70
2023/01/06 05:00:15;;;;;;;5.37;1.77;;;6.40;99.90;;;;;;4990298;28;20302;-70
2023/01/06 05:02:42;;;;;;;3.67;1.50;;;6.40;99.90;;;;;;4991100;28;20257;-70
2023/01/06 05:05:09;;;;;;;2.70;1.20;;;6.40;99.90;;;;;;4991272;28;20293;-71
2023/01/06 05:07:36;;;;;;;1.97;1.37;;;6.40;99.90;;;;;;4991604;28;20289;-70
2023/01/06 05:10:04;;;;;;;2.37;1.13;;;6.40;99.90;;;;;;4991506;28;20289;-70
2023/01/06 05:12:33;;;;;;;1.47;1.13;;;6.40;99.90;;;;;;4991139;28;20218;-70
2023/01/06 05:15:00;;;;;;;2.30;1.43;;;6.40;99.90;;;;;;4990861;28;20341;-70
2023/01/06 05:17:28;;;;;;;3.37;1.80;;;6.40;99.90;;;;;;4990462;28;20787;-70
2023/01/06 05:19:54;;;;;;;3.97;1.60;;;6.40;99.90;;;;;;4991326;28;20218;-70
2023/01/06 05:22:21;;;;;;;4.10;1.50;;;6.40;99.90;;;;;;4990832;28;20296;-70
2023/01/06 05:24:48;;;;;;;5.27;1.50;;;6.40;99.90;;;;;;4991239;28;20234;-70
2023/01/06 05:27:15;;;;;;;4.87;1.73;;;6.40;99.90;;;;;;4990864;28;20300;-70
2023/01/06 05:29:44;;;;;;;6.20;2.27;;;6.40;99.90;;;;;;4990931;28;20301;-70
2023/01/06 05:32:10;;;;;;;2.70;1.57;;;6.40;99.90;;;;;;4991235;28;20214;-70
2023/01/06 05:34:37;;;;;;;2.93;1.80;;;6.40;99.90;;;;;;4990788;28;20293;-70
2023/01/06 05:37:04;;;;;;;1.93;1.40;;;6.40;99.90;;;;;;4990935;28;20293;-70
2023/01/06 05:39:31;;;;;;;2.57;1.73;;;6.40;99.90;;;;;;4991118;28;20261;-70
2023/01/06 05:41:58;;;;;;;5.47;1.83;;;6.40;99.90;;;;;;4990792;28;20304;-70
2023/01/06 05:44:25;;;;;;;4.30;2.30;;;6.40;99.90;;;;;;4990621;28;20305;-70
2023/01/06 05:46:53;;;;;;;4.57;2.07;;;6.40;99.90;;;;;;4990012;28;20317;-70
2023/01/06 05:49:20;;;;;;;3.10;1.80;;;6.40;99.90;;;;;;4977936;28;20764;-70
2023/01/06 05:51:47;;;;;;;5.97;1.97;;;6.40;99.90;;;;;;4988762;28;20293;-70
2023/01/06 05:54:14;;;;;;;5.57;2.00;;;6.40;99.90;;;;;;4990544;28;20241;-70
2023/01/06 05:56:41;;;;;;;3.33;2.10;;;6.40;99.90;;;;;;4990057;28;20269;-70
2023/01/06 05:59:08;;;;;;;3.10;1.80;;;6.40;99.90;;;;;;4971131;28;20214;-70
2023/01/06 06:01:35;;;;;;;4.00;2.30;;;6.40;99.90;;;;;;4970864;28;20234;-70
2023/01/06 06:04:03;;;;;;;4.73;2.53;;;6.40;99.90;;;;;;4970967;28;20848;-70
2023/01/06 06:06:31;;;;;;;2.30;2.10;;;6.40;99.90;;;;;;4970642;28;20762;-70
2023/01/06 06:08:59;;;;;;;3.70;2.20;;;6.40;99.90;;;;;;4970917;28;20233;-70
2023/01/06 06:11:25;;;;;;;2.80;2.17;;;6.40;99.90;;;;;;4969500;28;20622;-70
2023/01/06 06:13:54;;;;;;;2.87;1.77;;;6.40;99.90;;;;;;4970838;28;20654;-70
2023/01/06 06:16:23;;;;;;;3.97;2.63;;;6.40;99.90;;;;;;4979717;28;20252;-70
2023/01/06 06:18:52;;;;;;;4.20;2.63;;;6.40;99.90;;;;;;4990002;28;20313;-70
2023/01/06 06:21:22;;;;;;;4.33;2.33;;;6.40;99.90;;;;;;4989679;28;20293;-70
2023/01/06 06:23:49;;;;;;;4.20;2.57;;;6.50;99.90;;;;;;4970606;28;20732;-70
2023/01/06 06:26:16;;;;;;;3.00;2.20;;;6.40;99.90;;;;;;4970334;28;20298;-70
2023/01/06 06:28:43;;;;;;;3.40;2.10;;;6.40;99.90;;;;;;4970271;28;20751;-70
2023/01/06 06:31:13;;;;;;;5.40;2.47;;;6.40;99.90;;;;;;4970502;28;20214;-70
2023/01/06 06:33:42;;;;;;;3.73;2.20;;;6.40;99.90;;;;;;4970186;28;20298;-70
2023/01/06 06:36:14;;;;;;;3.43;2.40;;;6.40;99.90;;;;;;4989376;28;20242;-70
2023/01/06 06:38:42;;;;;;;2.83;2.50;;;6.40;99.90;;;;;;4989566;28;20191;-70
2023/01/06 06:41:10;;;;;;;3.10;2.67;;;6.40;99.90;;;;;;4989589;28;20297;-70
2023/01/06 06:43:37;;;;;;;6.47;2.60;;;6.40;99.90;;;;;;4989321;28;20732;-70
2023/01/06 06:46:04;;;;;;;4.00;2.47;;;6.40;99.90;;;;;;4989395;28;20229;-70
2023/01/06 06:48:31;;;;;;;2.97;2.67;;;6.40;99.90;;;;;;4989537;28;20217;-70
2023/01/06 06:50:59;;;;;;;5.00;2.77;;;6.40;99.90;;;;;;4989387;28;20763;-70
2023/01/06 06:53:27;;;;;;;3.33;2.60;;;6.40;99.90;;;;;;4989271;28;20626;-70
2023/01/06 06:55:56;;;;;;;4.27;2.80;;;6.40;99.90;;;;;;4989564;28;20322;-70
2023/01/06 06:58:24;;;;;;;2.87;2.60;;;6.50;99.90;;;;;;4989732;28;21032;-70
2023/01/06 07:00:51;;;;;;;3.30;3.10;;;6.40;99.90;;;;;;4989071;28;20233;-70
2023/01/06 07:03:18;;;;;;;5.13;3.03;;;6.40;99.90;;;;;;4988762;28;20305;-70
2023/01/06 07:05:47;;;;;;;4.20;3.50;;;6.40;99.90;;;;;;4989477;28;20252;-70
2023/01/06 07:08:14;;;;;;;4.17;3.20;;;6.50;99.90;;;;;;4989205;28;20224;-70
2023/01/06 07:10:41;;;;;;;3.97;3.30;;;6.50;99.90;;;;;;4989270;28;20296;-70
2023/01/06 07:13:09;;;;;;;3.57;3.23;;;6.50;99.90;;;;;;4989070;28;20294;-70
2023/01/06 07:15:36;;;;;;;6.23;3.40;;;6.50;99.90;;;;;;4988464;28;20345;-70
2023/01/06 07:18:04;;;;;;;8.13;3.80;;;6.50;99.90;;;;;;4988818;28;20288;-70
2023/01/06 07:20:31;;;;;;;6.67;3.60;;;6.50;99.90;;;;;;4989178;28;20316;-70
2023/01/06 07:22:58;;;;;;;4.20;3.80;;;6.50;99.90;;;;;;4988477;28;20305;-70
2023/01/06 07:25:25;;;;;;;5.80;4.40;;;6.50;99.90;;;;;;4988572;28;20221;-70
2023/01/06 07:27:56;;;;;;;7.23;4.60;;;6.50;99.90;;;;;;4988632;28;20256;-70
2023/01/06 07:30:25;;;;;;;6.23;4.53;;;6.60;99.90;;;;;;4988502;28;20320;-70
2023/01/06 07:32:52;;;;;;;6.93;5.00;;;6.60;99.90;;;;;;4988008;28;20300;-69
2023/01/06 07:35:20;;;;;;;5.20;4.50;;;6.60;99.90;;;;;;4988146;28;20824;-70
2023/01/06 07:37:46;;;;;;;7.07;4.70;;;6.60;99.90;;;;;;4988012;28;20859;-70
2023/01/06 07:40:14;;;;;;;8.27;4.77;;;6.60;99.90;;;;;;4988533;28;20308;-70
2023/01/06 07:42:41;;;;;;;7.83;4.60;;;6.60;99.90;;;;;;4988511;28;20289;-70
2023/01/06 07:45:08;;;;;;;6.70;4.73;;;6.60;99.90;;;;;;4988339;28;20289;-70
2023/01/06 07:47:37;;;;;;;6.97;4.57;;;6.70;99.90;;;;;;4988173;28;20245;-70
2023/01/06 07:50:05;;;;;;;6.23;4.70;;;6.70;99.90;;;;;;4988691;28;20329;-70
2023/01/06 07:52:32;;;;;;;5.63;4.87;;;6.70;99.90;;;;;;4988306;28;20633;-70
2023/01/06 07:54:59;;;;;;;6.00;5.10;;;6.70;99.90;;;;;;4988312;28;20209;-70
2023/01/06 07:57:26;;;;;;;7.13;5.40;;;6.70;99.90;;;;;;4988043;28;20315;-70
2023/01/06 07:59:53;;;;;;;6.73;4.70;;;6.70;99.90;;;;;;4988464;28;20241;-70
2023/01/06 08:02:20;;;;;;;8.17;5.57;;;6.70;99.90;;;;;;4988170;28;20575;-70
2023/01/06 08:04:49;;;;;;;8.13;5.93;;;6.80;99.90;;;;;;4988462;28;20300;-70
2023/01/06 08:07:16;;;;;;;7.60;5.47;;;6.70;99.90;;;;;;4987891;28;20672;-70
2023/01/06 08:09:43;;;;;;;7.43;5.43;;;6.80;99.90;;;;;;4988121;28;20301;-70
2023/01/06 08:12:10;;;;;;;6.93;5.87;;;6.80;99.90;;;;;;4988297;28;20313;-69
2023/01/06 08:14:37;;;;;;;8.90;5.67;;;6.80;99.90;;;;;;4987774;28;20720;-70
2023/01/06 08:17:04;;;;;;;9.00;5.37;;;6.80;99.90;;;;;;4987680;28;20779;-70
2023/01/06 08:19:31;;;;;;;8.37;5.27;;;6.80;99.90;;;;;;4987777;28;20752;-70
2023/01/06 08:21:59;;;;;;;7.53;5.87;;;6.80;99.90;;;;;;4988193;28;20232;-70
2023/01/06 08:24:29;;;;;;;7.70;6.17;;;6.80;99.90;;;;;;4988102;28;20233;-69
2023/01/06 08:26:56;;;;;;;8.63;6.30;;;6.80;99.90;;;;;;4987926;28;20214;-70
2023/01/06 08:29:23;;;;;;;9.33;5.53;;;6.80;99.90;;;;;;4987699;28;20305;-70
2023/01/06 08:31:50;;;;;;;8.00;5.90;;;6.80;99.90;;;;;;4988295;28;20260;-70
2023/01/06 08:34:17;;;;;;;11.23;6.37;;;6.90;99.90;;;;;;4988928;28;20210;-70
2023/01/06 08:36:45;;;;;;;10.17;6.60;;;6.90;99.90;;;;;;4992566;28;20268;-70
2023/01/06 08:39:14;;;;;;;7.50;5.90;;;6.90;99.90;;;;;;4992151;28;20218;-70
2023/01/06 08:41:42;;;;;;;6.87;6.20;;;6.90;99.90;;;;;;4991920;28;20658;-70
2023/01/06 08:44:09;;;;;;;6.50;5.90;;;6.90;99.90;;;;;;4991799;28;20216;-70
2023/01/06 08:46:36;;;;;;;7.83;6.03;;;6.90;99.90;;;;;;4991514;28;20320;-70
2023/01/06 08:49:03;;;;;;;6.97;6.03;;;6.90;99.90;;;;;;4991711;28;20248;-70
2023/01/06 08:51:29;;;;;;;11.77;6.70;;;6.90;99.90;;;;;;4991817;28;20206;-70
2023/01/06 08:53:56;;;;;;;11.63;6.33;;;7.00;99.90;;;;;;4991979;28;20297;-70
2023/01/06 08:56:27;;;;;;;12.43;6.47;;;7.00;99.90;;;;;;4991416;28;20548;-70
2023/01/06 08:58:56;;;;;;;8.17;6.30;;;7.00;99.90;;;;;;4991949;28;20651;-70
2023/01/06 09:01:26;;;;;;;8.90;6.00;;;7.00;99.90;;;;;;4991534;28;20214;-70
2023/01/06 09:03:53;;;;;;;7.90;6.60;;;7.00;99.90;;;;;;4991098;28;20878;-70
2023/01/06 09:06:20;;;;;;;9.30;6.57;;;7.00;99.90;;;;;;4991537;28;20304;-70
2023/01/06 09:08:48;;;;;;;8.07;6.30;;;7.00;99.90;;;;;;4991314;28;20242;-70
2023/01/06 09:11:16;;;;;;;8.73;6.47;;;7.10;99.90;;;;;;4991358;28;20221;-72
2023/01/06 09:13:46;;;;;;;13.03;6.80;;;7.10;99.90;;;;;;4991498;28;20217;-73
2023/01/06 09:16:13;;;;;;;9.57;6.80;;;7.10;99.90;;;;;;4990719;28;20433;-72
2023/01/06 09:18:46;;;;;;;7.73;6.43;;;7.20;99.90;;;;;;4991077;28;20634;-72
2023/01/06 09:21:14;;;;;;;10.50;6.27;;;7.10;99.90;;;;;;4991164;28;20198;-72
2023/01/06 09:23:41;;;;;;;10.17;6.57;;;7.20;99.90;;;;;;4990887;28;20300;-72
2023/01/06 09:26:08;;;;;;;10.53;7.00;;;7.20;99.90;;;;;;4990915;28;20256;-72
2023/01/06 09:28:35;;;;;;;8.00;6.60;;;7.20;99.90;;;;;;4991250;28;20297;-72
2023/01/06 09:31:04;;;;;;;7.97;6.97;;;7.20;99.90;;;;;;4991020;28;20321;-72
2023/01/06 09:33:31;;;;;;;10.17;7.10;;;7.20;99.90;;;;;;4990709;28;20301;-72
2023/01/06 09:35:57;;;;;;;8.53;6.83;;;7.30;99.90;;;;;;4990973;28;20210;-72
2023/01/06 09:38:25;;;;;;;10.87;7.63;;;7.30;99.90;;;;;;4990844;28;20305;-72
2023/01/06 09:41:12;;;;;;;10.10;6.93;;;7.30;99.90;;;;;;4990440;28;20213;-72
2023/01/06 09:43:48;;;;;;;11.57;6.77;;;7.30;99.90;;;;;;4990431;28;20297;-72
2023/01/06 09:46:19;;;;;;;11.77;6.90;;;7.30;99.90;;;;;;4990521;28;20229;-72
2023/01/06 09:48:56;;;;;;;8.70;6.80;;;7.30;99.90;;;;;;4990642;28;20257;-72
2023/01/06 09:51:27;;;;;;;9.90;7.33;;;7.30;99.90;;;;;;4990306;28;20245;-72
2023/01/06 09:54:00;;;;;;;8.97;6.60;;;7.40;99.90;;;;;;4990331;28;20261;-72
2023/01/06 09:56:27;;;;;;;12.90;6.87;;;7.40;99.90;;;;;;4990288;28;20332;-71
2023/01/06 09:59:01;;;;;;;9.67;6.90;;;7.40;99.90;;;;;;4990605;28;20246;-72
2023/01/06 10:01:36;;;;;;;12.73;7.37;;;7.40;99.90;;;;;;4990350;28;20224;-72
2023/01/06 10:04:03;;;;;;;11.40;7.60;;;7.40;99.90;;;;;;4990506;28;20297;-72
2023/01/06 10:06:35;;;;;;;11.47;7.27;;;7.40;99.90;;;;;;4990557;28;20262;-72
2023/01/06 10:09:13;;;;;;;9.20;6.27;;;7.50;99.90;;;;;;4990326;28;20198;-70
2023/01/06 10:11:52;;;;;;;8.40;6.73;;;7.50;99.90;;;;;;4989726;28;20723;-70
2023/01/06 10:14:26;;;;;;;9.30;6.83;;;7.50;99.90;;;;;;4989706;28;20210;-70
2023/01/06 10:17:16;;;;;;;12.53;7.40;;;7.50;99.90;;;;;;4990188;28;20335;-70
2023/01/06 10:19:58;;;;;;;9.13;6.90;;;7.60;99.90;;;;;;4989832;28;20285;-70
2023/01/06 10:22:33;;;;;;;11.13;6.90;;;7.60;99.90;;;;;;4990170;28;20245;-70
2023/01/06 10:25:08;;;;;;;9.27;6.87;;;7.60;99.90;;;;;;4990073;28;20194;-70
2023/01/06 10:27:37;;;;;;;8.03;6.57;;;7.70;99.90;;;;;;4983566;28;20708;-70
2023/01/06 10:30:15;;;;;;;7.13;6.43;;;7.70;99.90;;;;;;4989693;28;20206;-70
2023/01/06 10:32:45;;;;;;;9.07;6.20;;;7.70;99.90;;;;;;4990072;28;20377;-70
2023/01/06 10:35:15;;;;;;;9.37;7.03;;;7.80;99.90;;;;;;4989733;28;20253;-70
2023/01/06 10:37:45;;;;;;;10.57;7.03;;;7.80;99.90;;;;;;4989866;28;20236;-69
2023/01/06 10:40:18;;;;;;;8.63;6.60;;;7.80;99.90;;;;;;4989903;28;20214;-70
2023/01/06 10:42:56;;;;;;;9.43;7.40;;;7.80;99.90;;;;;;4989781;28;20660;-70
2023/01/06 10:45:26;;;;;;;7.67;6.77;;;7.90;99.90;;;;;;4989799;28;20239;-69
2023/01/06 10:47:54;;;;;;;7.83;7.03;;;7.90;99.90;;;;;;4989280;28;20669;-70
2023/01/06 10:50:22;;;;;;;8.33;7.10;;;7.90;99.90;;;;;;4989388;28;20210;-70
2023/01/06 10:52:49;;;;;;;9.30;7.33;;;7.90;99.90;;;;;;4989414;28;20283;-70
2023/01/06 10:55:31;;;;;;;9.03;6.93;;;7.90;99.90;;;;;;4989019;28;20241;-70
2023/01/06 10:58:03;;;;;;;7.07;6.37;;;7.90;99.90;;;;;;4988918;28;20222;-70
2023/01/06 11:00:31;;;;;;;9.17;6.73;;;7.90;99.90;;;;;;4989549;28;20293;-70
2023/01/06 11:03:05;;;;;;;11.23;7.30;;;7.90;99.90;;;;;;4988847;28;20305;-70
2023/01/06 11:05:34;;;;;;;10.40;6.37;;;7.90;99.90;;;;;;4989535;28;20289;-70
2023/01/06 11:08:07;;;;;;;7.10;6.40;;;7.90;99.90;;;;;;4989483;28;20230;-70
2023/01/06 11:10:38;;;;;;;7.70;6.90;;;7.90;99.90;;;;;;4989483;28;20554;-70
2023/01/06 11:13:07;;;;;;;8.47;6.53;;;7.90;99.90;;;;;;4989384;28;20194;-70
2023/01/06 11:15:39;;;;;;;8.93;7.23;;;7.90;99.90;;;;;;4985532;28;20767;-70
2023/01/06 11:18:21;;;;;;;9.97;7.00;;;7.90;99.90;;;;;;4969236;28;20709;-70
2023/01/06 11:21:03;;;;;;;8.80;6.30;;;7.90;99.90;;;;;;4969864;28;20658;-70
2023/01/06 11:23:30;;;;;;;9.73;6.97;;;7.90;99.90;;;;;;4986729;28;20198;-69
2023/01/06 11:26:02;;;;;;;10.70;7.20;;;7.90;99.90;;;;;;4989359;28;20662;-70
2023/01/06 11:28:30;;;;;;;8.83;6.50;;;7.90;99.90;;;;;;4988816;28;20214;-70
2023/01/06 11:31:03;;;;;;;9.13;6.33;;;7.90;99.90;;;;;;4988631;28;20214;-70
2023/01/06 11:33:35;;;;;;;7.40;6.60;;;7.90;99.90;;;;;;4988792;28;20201;-70
2023/01/06 11:36:09;;;;;;;9.17;7.00;;;7.90;99.90;;;;;;4988960;28;20296;-70
2023/01/06 11:38:42;;;;;;;7.10;6.40;;;7.90;99.90;;;;;;4988904;28;20231;-69
2023/01/06 11:41:11;;;;;;;9.10;6.10;;;7.90;99.90;;;;;;4988549;28;20649;-70
2023/01/06 11:43:44;;;;;;;9.63;7.13;;;7.90;99.90;;;;;;4988552;28;20202;-70
2023/01/06 11:46:13;;;;;;;9.77;6.73;;;7.90;99.90;;;;;;4988280;28;20315;-70
2023/01/06 11:48:46;;;;;;;7.17;6.47;;;7.90;99.90;;;;;;4988294;28;20210;-70
2023/01/06 11:51:13;;;;;;;7.43;6.40;;;7.90;99.90;;;;;;4988400;28;20241;-70
2023/01/06 11:53:54;;;;;;;8.60;5.97;;;8.00;99.90;;;;;;4988381;28;20306;-70
2023/01/06 11:56:21;;;;;;;7.53;5.87;;;8.00;99.90;;;;;;4988400;28;20280;-70
2023/01/06 11:58:56;;;;;;;6.67;5.50;;;8.00;99.90;;;;;;4988766;28;20238;-70
2023/01/06 12:01:32;;;;;;;5.00;4.60;;;8.10;99.90;;;;;;4988195;28;20850;-70
2023/01/06 12:04:10;;;;;;;4.30;3.90;;;8.30;99.90;;;;;;4987967;28;20237;-70
2023/01/06 12:06:41;;;;;;;4.23;3.93;;;8.40;99.90;;;;;;4988493;28;20220;-70
2023/01/06 12:09:13;;;;;;;3.73;3.10;;;8.60;99.90;;;;;;4987064;28;20241;-70
2023/01/06 12:11:45;;;;;;;3.93;3.40;;;8.70;99.90;;;;;;4988280;28;20206;-70
2023/01/06 12:14:15;;;;;;;3.97;3.50;;;8.80;99.90;;;;;;4987626;28;20238;-70
2023/01/06 12:16:52;;;;;;;4.20;3.20;;;8.90;99.90;;;;;;4987954;28;20296;-70
2023/01/06 12:19:28;;;;;;;3.40;3.07;;;9.00;99.90;;;;;;4987557;28;20222;-70
2023/01/06 12:21:55;;;;;;;3.47;2.33;;;9.10;99.90;;;;;;4988348;28;20293;-71
2023/01/06 12:24:25;;;;;;;2.97;2.67;;;9.20;99.90;;;;;;4987702;28;20692;-70
2023/01/06 12:26:53;;;;;;;2.83;2.63;;;9.20;99.90;;;;;;4987885;28;20682;-70
2023/01/06 12:29:21;;;;;;;3.20;2.63;;;9.30;99.90;;;;;;4987627;28;20290;-70
2023/01/06 12:32:00;;;;;;;2.47;2.30;;;9.20;99.90;;;;;;4987946;28;20214;-70
2023/01/06 12:34:33;;;;;;;3.33;2.70;;;9.20;99.90;;;;;;4988072;28;20202;-70
2023/01/06 12:37:12;;;;;;;2.80;2.50;;;9.30;99.90;;;;;;4988116;28;20218;-69
2023/01/06 12:39:49;;;;;;;3.00;2.70;;;9.30;99.90;;;;;;4987779;28;20732;-70
2023/01/06 12:42:23;;;;;;;4.23;2.67;;;9.20;99.90;;;;;;4988123;28;20194;-70
2023/01/06 12:44:54;;;;;;;2.37;2.27;;;9.30;99.90;;;;;;4988060;28;20324;-70
2023/01/06 12:47:26;;;;;;;2.53;2.33;;;9.40;99.90;;;;;;4987817;28;20268;-70
2023/01/06 12:49:58;;;;;;;2.47;2.27;;;9.40;99.90;;;;;;4987692;28;20293;-70
2023/01/06 12:52:32;;;;;;;2.97;2.67;;;9.40;99.90;;;;;;4987688;28;20289;-70
2023/01/06 12:55:00;;;;;;;2.03;1.80;;;9.50;99.90;;;;;;4987869;28;20302;-70
2023/01/06 12:57:49;;;;;;;4.30;1.93;;;9.50;99.90;;;;;;4987357;28;20261;-69
2023/01/06 13:00:42;;;;;;;2.17;1.87;;;9.50;99.90;;;;;;4987953;28;20249;-70
2023/01/06 13:03:47;;;;;;;2.03;1.70;;;9.60;99.90;;;;;;4987150;28;20285;-70
2023/01/06 13:06:40;;;;;;;2.67;1.60;;;9.60;99.90;;;;;;4987927;28;20234;-70
2023/01/06 13:09:22;;;;;;;1.50;1.40;;;9.70;99.90;;;;;;4974079;28;20319;-70
2023/01/06 13:12:07;;;;;;;1.67;1.50;;;9.70;99.90;;;;;;4968429;28;20277;-70
2023/01/06 13:14:44;;;;;;;1.67;1.57;;;9.70;99.90;;;;;;4970133;28;20241;-70
2023/01/06 13:17:21;;;;;;;1.10;1.10;;;9.60;99.90;;;;;;4987094;28;20234;-70